Flight Track Log - Related Links

Times and Time Zones

All times are in EDT time to prevent confusion due to time zone crossing. See the SWA2852 flight status page for this flight to view local times or setup timezone preferences in your user account.

Time Position Orientation Groundspeed Altitude Reporting Facility
EDT Latitude Longitude Course Direction KTS MPH feet Rate Location/Type
Thu 07:40:56 AM 36.1333 -86.6833 287° West 153 176 1,500  Level Nashville TRACON
Thu 07:41:56 AM 36.1500 -86.7500 287° West 230 265 4,500 3,633 Climbing Nashville TRACON
Thu 07:42:45 AM 36.1583 -86.8300 277° West 249 287 8,100 4,128 Climbing Memphis Center
Thu 07:43:45 AM 36.1817 -86.9114 290° West 269 310 12,000 4,000 Climbing Memphis Center
Thu 07:44:45 AM 36.2114 -87.0156 290° West 305 351 16,100 3,750 Climbing Memphis Center
Thu 07:45:45 AM 36.2414 -87.1225 289° West 319 367 19,500 3,550 Climbing Memphis Center
Thu 07:46:45 AM 36.2692 -87.2294 288° West 325 374 23,200 2,950 Climbing Memphis Center
Thu 07:47:45 AM 36.2883 -87.3317 283° West 331 381 25,400 2,350 Climbing Memphis Center
Thu 07:48:45 AM 36.3058 -87.4494 280° West 344 396 27,900 2,700 Climbing Memphis Center
Thu 07:49:45 AM 36.3397 -87.5617 291° West 349 402 30,800 2,900 Climbing Memphis Center
Thu 07:50:45 AM 36.3858 -87.6658 299° West 351 404 33,700 2,050 Climbing Memphis Center
Thu 07:51:45 AM 36.4339 -87.7672 301° West 345 397 34,900 1,550 Climbing Memphis Center
Thu 07:52:45 AM 36.4797 -87.8717 299° West 345 397 36,800 1,650 Climbing Memphis Center
Thu 07:53:45 AM 36.5319 -87.9836 300° West 345 397 38,200 1,400 Climbing Memphis Center
Thu 07:54:45 AM 36.5778 -88.0908 298° West 345 397 39,600 900 Climbing Memphis Center
Thu 07:55:45 AM 36.6231 -88.1825 302° West 345 397 40,000 198 Climbing Memphis Center
Thu 07:56:46 AM 36.6561 -88.2903 291° West 345 397 40,000  Level Memphis Center
Thu 07:57:45 AM 36.6769 -88.4064 283° West 340 391 40,000  Level Memphis Center
Thu 07:58:45 AM 36.6933 -88.5222 280° West 340 391 40,000  Level Memphis Center
Thu 07:59:45 AM 36.7114 -88.6358 281° West 340 391 40,000  Level Memphis Center
Thu 08:00:45 AM 36.7297 -88.7519 281° West 340 391 40,000  Level Memphis Center
Thu 08:01:45 AM 36.7478 -88.8653 281° West 340 391 40,000  Level Memphis Center
Thu 08:02:45 AM 36.7658 -88.9817 281° West 340 391 40,000  Level Memphis Center
Thu 08:03:45 AM 36.7836 -89.0978 281° West 340 391 40,000  Level Memphis Center
Thu 08:04:45 AM 36.8017 -89.2117 281° West 340 391 40,000  Level Memphis Center
Thu 08:05:45 AM 36.8192 -89.3306 280° West 340 391 40,000  Level Memphis Center
Thu 08:06:45 AM 36.8431 -89.4417 285° West 340 391 40,000  Level Memphis Center
Thu 08:08:35 AM 36.9033 -89.6342 291° West 345 397 40,000  Level Kansas City Center
Thu 08:09:35 AM 36.9392 -89.7442 292° West 344 396 40,000  Level Kansas City Center
Thu 08:10:39 AM 36.9803 -89.8756 291° West 340 391 40,000  Level Kansas City Center
Thu 08:11:40 AM 37.0144 -89.9856 291° West 340 391 40,000  Level Kansas City Center
Thu 08:12:40 AM 37.0483 -90.0956 291° West 340 391 40,000  Level Kansas City Center
Thu 08:13:40 AM 37.0822 -90.2047 291° West 338 389 40,000  Level Kansas City Center
Thu 08:14:44 AM 37.1178 -90.3158 292° West 341 392 40,000  Level Kansas City Center
Thu 08:15:44 AM 37.1506 -90.4269 290° West 342 394 40,000  Level Kansas City Center
Thu 08:16:44 AM 37.1847 -90.5361 291° West 339 390 40,000  Level Kansas City Center
Thu 08:17:45 AM 37.2175 -90.6447 291° West 334 384 40,000  Level Kansas City Center
Thu 08:18:49 AM 37.2508 -90.7539 291° West 335 386 40,000  Level Kansas City Center
Thu 08:19:49 AM 37.2900 -90.8808 291° West 330 380 40,000  Level Kansas City Center
Thu 08:20:51 AM 37.3217 -90.9900 290° West 330 380 40,000  Level Kansas City Center
Thu 08:21:53 AM 37.3561 -91.0989 292° West 333 383 40,000  Level Kansas City Center
Thu 08:22:51 AM 37.3883 -91.2106 290° West 338 389 40,000  Level Kansas City Center
Thu 08:23:55 AM 37.4214 -91.3231 290° West 341 392 40,000  Level Kansas City Center
Thu 08:24:55 AM 37.4556 -91.4339 291° West 340 391 40,000  Level Kansas City Center
Thu 08:25:57 AM 37.4881 -91.5464 290° West 340 391 40,000  Level Kansas City Center
Thu 08:26:59 AM 37.5217 -91.6572 291° West 338 389 40,000  Level Kansas City Center
Thu 08:27:59 AM 37.5536 -91.7694 290° West 339 390 40,000  Level Kansas City Center
Thu 08:29:01 AM 37.5869 -91.8825 290° West 340 391 40,000  Level Kansas City Center
Thu 08:30:01 AM 37.6194 -91.9950 290° West 340 391 40,000  Level Kansas City Center
Thu 08:31:03 AM 37.6556 -92.1197 290° West 341 392 40,000  Level Kansas City Center
Thu 08:32:06 AM 37.6881 -92.2331 290° West 342 394 40,000  Level Kansas City Center
Thu 08:33:07 AM 37.7211 -92.3461 290° West 343 395 40,000 -393 Level Kansas City Center
Thu 08:34:08 AM 37.7536 -92.4592 290° West 342 394 39,200 -878 Descending Kansas City Center
Thu 08:35:10 AM 37.7858 -92.5728 290° West 343 395 38,200 -1,623 Descending Kansas City Center
Thu 08:36:10 AM 37.8178 -92.6811 290° West 335 386 35,900 -2,033 Descending Kansas City Center
Thu 08:37:11 AM 37.8533 -92.8081 290° West 327 376 34,100 -934 Descending Kansas City Center
Thu 08:38:12 AM 37.8842 -92.9147 290° West 323 372 34,000 -48 Descending Kansas City Center
Thu 08:39:15 AM 37.9144 -93.0211 290° West 320 368 34,000  Level Kansas City Center
Thu 08:40:17 AM 37.9444 -93.1286 290° West 322 371 34,000  Level Kansas City Center
Thu 08:41:18 AM 37.9747 -93.2361 290° West 323 372 34,000  Level Kansas City Center
Thu 08:42:19 AM 38.0044 -93.3453 289° West 324 373 34,000  Level Kansas City Center
Thu 08:43:22 AM 38.0347 -93.4533 290° West 325 374 34,000  Level Kansas City Center
Thu 08:44:21 AM 38.0897 -93.5472 307° West 340 391 34,000  Level Kansas City Center
Thu 08:45:23 AM 38.1667 -93.6178 324° Northwest 340 391 34,000  Level Kansas City Center
Thu 08:46:24 AM 38.2472 -93.6864 326° Northwest 343 395 34,000 -1,056 Level Kansas City Center
Thu 08:47:28 AM 38.3222 -93.7567 324° Northwest 337 388 31,800 -2,516 Descending Kansas City Center
Thu 08:48:28 AM 38.4139 -93.8392 325° Northwest 334 384 28,800 -2,678 Descending Kansas City Center
Thu 08:49:29 AM 38.4858 -93.9033 325° Northwest 334 384 26,400 -2,410 Descending Kansas City Center
Thu 08:50:30 AM 38.5617 -93.9706 325° Northwest 342 394 23,900 -2,468 Descending Kansas City Center
Thu 08:51:33 AM 38.6444 -94.0489 324° Northwest 331 381 21,300 -2,256 Descending Kansas City Center
Thu 08:52:35 AM 38.7133 -94.1136 324° Northwest 321 369 19,200 -2,016 Descending Kansas City Center
Thu 08:53:35 AM 38.7836 -94.1906 320° Northwest 299 344 17,200 -2,115 Descending Kansas City Center
Thu 08:54:37 AM 38.8442 -94.2575 319° Northwest 297 342 14,900 -2,146 Descending Kansas City Center
Thu 08:55:38 AM 38.9036 -94.3211 320° Northwest 291 335 12,800 -1,463 Descending Kansas City Center
Thu 08:56:40 AM 38.9681 -94.3919 319° Northwest 271 312 11,900 -439 Descending Kansas City Center
Thu 08:57:41 AM 39.0192 -94.4461 321° Northwest 252 290 11,900 -295 Level Kansas City Center
Thu 08:58:42 AM 39.0769 -94.5094 320° Northwest 245 282 11,300 -488 Descending Kansas City Center
Thu 08:59:44 AM 39.1275 -94.5642 320° Northwest 248 285 10,900 -195 Descending Kansas City Center
Thu 09:00:45 AM 39.1811 -94.6083 327° Northwest 247 284 10,900 -927 Level Kansas City Center
Thu 09:01:47 AM 39.2572 -94.5872 12° North 247 284 9,000 -1,742 Descending Kansas City Center
Thu 09:02:49 AM 39.3203 -94.5681 13° North 244 281 7,300 -1,623 Descending Kansas City Center
Thu 09:03:49 AM 39.3842 -94.5467 15° North 212 244 5,700 -1,475 Descending Kansas City Center
Thu 09:04:51 AM 39.4069 -94.5917 303° West 187 215 4,300 -1,258 Descending Kansas City Center
Thu 09:05:53 AM 39.3892 -94.6636 252° West 186 214 3,100 -1,091 Descending Kansas City Center
Thu 09:06:52 AM 39.3583 -94.6881 212° Southwest 137 158 2,100 -780 Descending Kansas City Center
Thu 09:07:56 AM 39.3247 -94.6967 191° South 129 148 1,500 -528 Descending Kansas City Center
Thu 09:08:57 AM 39.2858 -94.7078 192° South 125 144 1,000 -492 Descending Kansas City Center

Login

Don't have an account? Register now (free) for customized features, flight alerts, and more!